Time;durP1;ratioP1;P1;durP2;ratioP2;P2;SDS_P1;SDS_P2;PMS_P1;PMS_P2;Temp;Humidity;BMP_temperature;BMP_pressure;BME280_temperature;BME280_humidity;BME280_pressure;Samples;Min_cycle;Max_cycle;Signal;HPM_P1;HPM_P2
2020/12/14 00:01:03;;;;;;;;;;;4.20;93.90;;;;;;4958425;29;20780;-74
2020/12/14 00:03:29;;;;;;;108.45;35.15;;;4.20;93.90;;;;;;4955639;29;20435;-75
2020/12/14 00:05:54;;;;;;;;;;;4.20;93.90;;;;;;4954976;29;20138;-75
2020/12/14 00:08:20;;;;;;;125.38;37.72;;;4.20;93.90;;;;;;4954584;29;19918;-75
2020/12/14 00:10:45;;;;;;;;;;;4.20;94.00;;;;;;4955072;29;20053;-76
2020/12/14 00:13:11;;;;;;;110.13;36.47;;;4.20;93.90;;;;;;4969346;28;19914;-75
2020/12/14 00:15:36;;;;;;;;;;;4.20;93.90;;;;;;4954237;29;20035;-75
2020/12/14 00:18:02;;;;;;;103.35;35.22;;;4.10;94.00;;;;;;4972619;28;19917;-75
2020/12/14 00:20:27;;;;;;;;;;;4.10;94.00;;;;;;4969412;28;20038;-73
2020/12/14 00:22:54;;;;;;;111.53;37.58;;;4.10;94.00;;;;;;4957207;29;19914;-74
2020/12/14 00:25:20;;;;;;;95.68;31.15;;;4.20;94.00;;;;;;4954138;28;20111;-75
2020/12/14 00:27:46;;;;;;;;;;;4.10;94.00;;;;;;4969250;28;20129;-74
2020/12/14 00:30:11;;;;;;;127.93;38.38;;;4.20;94.00;;;;;;4968893;28;19910;-76
2020/12/14 00:32:37;;;;;;;;;;;4.20;94.00;;;;;;4969545;28;20031;-75
2020/12/14 00:35:03;;;;;;;99.10;33.58;;;4.20;93.90;;;;;;4969054;28;19910;-75
2020/12/14 00:37:28;;;;;;;;;;;4.20;94.00;;;;;;4954627;28;20066;-75
2020/12/14 00:39:54;;;;;;;108.82;36.13;;;4.20;94.00;;;;;;4953944;28;19997;-75
2020/12/14 00:42:19;;;;;;;;;;;4.20;94.00;;;;;;4971743;28;20110;-75
2020/12/14 00:44:45;;;;;;;99.25;34.85;;;4.20;94.00;;;;;;4971274;28;20339;-75
2020/12/14 00:47:10;;;;;;;;;;;4.20;94.00;;;;;;4954345;29;20105;-75
2020/12/14 00:49:36;;;;;;;104.70;35.80;;;4.20;93.90;;;;;;4968513;28;19979;-75
2020/12/14 00:52:04;;;;;;;;;;;4.20;93.90;;;;;;4954353;29;20027;-75
2020/12/14 00:54:30;;;;;;;101.35;36.80;;;4.20;93.90;;;;;;4953682;28;20391;-75
2020/12/14 00:56:56;;;;;;;95.43;34.03;;;4.20;94.00;;;;;;4954103;28;20042;-75
2020/12/14 00:59:22;;;;;;;;;;;4.20;93.90;;;;;;4954676;28;20027;-75
2020/12/14 01:01:52;;;;;;;100.45;33.55;;;4.20;93.90;;;;;;4968976;28;20008;-75
2020/12/14 01:04:18;;;;;;;85.30;30.33;;;4.20;93.90;;;;;;4972567;28;20027;-78
2020/12/14 01:06:44;;;;;;;84.15;32.08;;;4.20;93.80;;;;;;4970519;28;20031;-78
2020/12/14 01:09:09;;;;;;;;;;;4.20;93.80;;;;;;4954868;29;20042;-75
2020/12/14 01:11:35;;;;;;;78.18;32.95;;;4.20;93.50;;;;;;4953453;29;20013;-76
2020/12/14 01:14:00;;;;;;;;;;;4.20;93.30;;;;;;4969024;28;20066;-76
2020/12/14 01:16:26;;;;;;;74.47;31.52;;;4.10;93.30;;;;;;4953555;29;19936;-76
2020/12/14 01:18:51;;;;;;;;;;;4.10;93.40;;;;;;4953300;29;20031;-76
2020/12/14 01:21:21;;;;;;;49.38;22.92;;;4.10;93.40;;;;;;4954754;29;19910;-76
2020/12/14 01:23:48;;;;;;;70.70;27.67;;;4.10;93.30;;;;;;4953212;29;20035;-76
2020/12/14 01:26:13;;;;;;;59.70;25.48;;;4.10;93.30;;;;;;4969373;28;20037;-76
2020/12/14 01:28:39;;;;;;;;;;;4.10;93.30;;;;;;4957785;28;20099;-77
2020/12/14 01:31:05;;;;;;;37.83;18.88;;;4.10;92.80;;;;;;4954410;29;19970;-77
2020/12/14 01:33:30;;;;;;;;;;;4.10;92.70;;;;;;4969633;28;20338;-76
2020/12/14 01:35:56;;;;;;;31.48;17.10;;;4.10;92.50;;;;;;4953572;29;19941;-75
2020/12/14 01:38:22;;;;;;;;;;;4.10;92.50;;;;;;4954087;28;20578;-75
2020/12/14 01:40:47;;;;;;;34.80;17.55;;;4.00;92.50;;;;;;4953709;29;19989;-75
2020/12/14 01:43:13;;;;;;;;;;;4.10;92.60;;;;;;4952679;29;20041;-75
2020/12/14 01:45:39;;;;;;;35.50;17.88;;;4.10;92.40;;;;;;4953741;29;19910;-76
2020/12/14 01:48:07;;;;;;;;;;;4.00;92.40;;;;;;4956058;29;20106;-78
2020/12/14 01:50:33;;;;;;;38.30;18.48;;;4.00;92.40;;;;;;4954519;28;19977;-75
2020/12/14 01:53:01;;;;;;;;;;;4.00;92.30;;;;;;4956959;28;20039;-75
2020/12/14 01:55:38;;;;;;;30.38;16.67;;;4.00;92.20;;;;;;4953117;28;19914;-75
2020/12/14 01:58:04;;;;;;;30.45;15.45;;;4.00;92.10;;;;;;4953083;28;20035;-76
2020/12/14 02:00:30;;;;;;;;;;;4.00;92.20;;;;;;4953383;29;20500;-75
2020/12/14 02:02:55;;;;;;;39.40;17.70;;;4.00;92.20;;;;;;4953467;29;19945;-75
2020/12/14 02:05:21;;;;;;;;;;;4.00;92.30;;;;;;4968930;28;20034;-77
2020/12/14 02:07:47;;;;;;;35.35;19.60;;;4.00;92.30;;;;;;4952868;29;20378;-75
2020/12/14 02:10:12;;;;;;;;;;;4.00;92.40;;;;;;4955676;28;20087;-76
2020/12/14 02:12:38;;;;;;;27.48;14.82;;;4.00;92.40;;;;;;4967588;28;20363;-75
2020/12/14 02:15:04;;;;;;;;;;;4.00;92.30;;;;;;4953310;28;20031;-76
2020/12/14 02:17:30;;;;;;;30.60;16.17;;;4.10;92.40;;;;;;4970157;28;20768;-75
2020/12/14 02:19:55;;;;;;;;;;;4.00;92.50;;;;;;4953079;28;20027;-75
2020/12/14 02:22:24;;;;;;;41.33;19.83;;;4.00;92.30;;;;;;4952456;29;19977;-76
2020/12/14 02:25:02;;;;;;;39.10;17.48;;;4.10;92.30;;;;;;4967634;28;20062;-75
2020/12/14 02:27:29;;;;;;;34.47;18.13;;;4.00;92.30;;;;;;4953084;28;20039;-76
2020/12/14 02:29:56;;;;;;;46.78;23.10;;;4.10;92.30;;;;;;4953327;28;20031;-76
2020/12/14 02:32:23;;;;;;;43.90;20.92;;;4.10;92.30;;;;;;4971785;28;20035;-76
2020/12/14 02:34:49;;;;;;;39.72;18.85;;;4.10;92.30;;;;;;4967468;28;20027;-76
2020/12/14 02:37:16;;;;;;;;;;;4.10;92.20;;;;;;4954514;29;20078;-76
2020/12/14 02:39:42;;;;;;;42.10;23.95;;;4.10;92.10;;;;;;4953204;28;19937;-75
2020/12/14 02:42:14;;;;;;;;;;;4.10;91.60;;;;;;4957119;29;20440;-76
2020/12/14 02:44:41;;;;;;;31.05;17.80;;;4.00;91.30;;;;;;4952664;28;19910;-76
2020/12/14 02:47:08;;;;;;;29.08;15.98;;;4.00;91.40;;;;;;4952609;28;20041;-76
2020/12/14 02:49:35;;;;;;;26.55;14.30;;;4.00;91.70;;;;;;4967241;28;20552;-76
2020/12/14 02:52:01;;;;;;;23.63;13.25;;;4.00;91.40;;;;;;4952960;28;20027;-76
2020/12/14 02:54:26;;;;;;;;;;;4.00;91.40;;;;;;4956139;28;20125;-76
2020/12/14 02:56:52;;;;;;;27.55;14.32;;;3.90;91.50;;;;;;4952369;28;19918;-75
2020/12/14 02:59:18;;;;;;;;;;;3.90;91.60;;;;;;4972004;28;20062;-77
2020/12/14 03:01:44;;;;;;;23.88;13.07;;;3.90;91.70;;;;;;4956393;28;19910;-77
2020/12/14 03:04:09;;;;;;;;;;;3.90;91.90;;;;;;4971901;28;20094;-75
2020/12/14 03:06:35;;;;;;;24.25;14.55;;;3.80;91.90;;;;;;4960655;28;20409;-77
2020/12/14 03:09:01;;;;;;;;;;;3.80;91.90;;;;;;4972829;28;20412;-76
2020/12/14 03:11:27;;;;;;;22.73;14.97;;;3.70;91.90;;;;;;4956099;29;19918;-75
2020/12/14 03:13:53;;;;;;;;;;;3.70;91.80;;;;;;4957447;29;20031;-75
2020/12/14 03:16:18;;;;;;;25.50;13.32;;;3.60;91.60;;;;;;4974069;28;20445;-75
2020/12/14 03:18:44;;;;;;;;;;;3.70;91.40;;;;;;4956549;29;20023;-75
2020/12/14 03:21:10;;;;;;;19.10;11.40;;;3.70;91.50;;;;;;4971063;28;19911;-76
2020/12/14 03:23:35;;;;;;;;;;;3.70;91.50;;;;;;4971403;28;20043;-76
2020/12/14 03:26:01;;;;;;;23.77;11.63;;;3.80;91.40;;;;;;4971262;28;19964;-77
2020/12/14 03:28:27;;;;;;;;;;;3.70;91.30;;;;;;4972468;28;20034;-77
2020/12/14 03:30:53;;;;;;;16.45;9.73;;;3.70;91.00;;;;;;4974041;28;20327;-75
2020/12/14 03:33:18;;;;;;;;;;;3.70;91.00;;;;;;4956927;29;20180;-76
2020/12/14 03:35:47;;;;;;;23.48;13.38;;;3.80;90.80;;;;;;4955458;29;20298;-76
2020/12/14 03:38:16;;;;;;;22.98;12.23;;;3.70;90.70;;;;;;4958859;28;20035;-76
2020/12/14 03:40:42;;;;;;;17.67;10.82;;;3.70;90.70;;;;;;4956647;28;20110;-76
2020/12/14 03:43:08;;;;;;;25.77;12.18;;;3.70;90.40;;;;;;4956884;28;20023;-76
2020/12/14 03:45:33;;;;;;;;;;;3.70;90.50;;;;;;4956300;29;20027;-77
2020/12/14 03:47:59;;;;;;;22.73;13.48;;;3.70;90.10;;;;;;4957558;29;20019;-77
2020/12/14 03:50:25;;;;;;;;;;;3.70;90.20;;;;;;4972975;28;20090;-76
2020/12/14 03:52:50;;;;;;;24.85;14.00;;;3.70;90.20;;;;;;4959017;28;19906;-77
2020/12/14 03:55:16;;;;;;;;;;;3.70;90.30;;;;;;4959576;29;20059;-76
2020/12/14 03:57:42;;;;;;;22.15;12.20;;;3.60;90.30;;;;;;4972648;28;19920;-77
2020/12/14 04:00:07;;;;;;;;;;;3.60;90.30;;;;;;4958808;29;20026;-76
2020/12/14 04:02:33;;;;;;;27.75;14.07;;;3.60;90.40;;;;;;4956257;29;20265;-76
2020/12/14 04:04:58;;;;;;;;;;;3.60;90.40;;;;;;4957769;29;20039;-76
2020/12/14 04:07:24;;;;;;;22.65;13.75;;;3.60;90.60;;;;;;4958553;29;20299;-77
2020/12/14 04:09:49;;;;;;;;;;;3.60;90.60;;;;;;4973102;28;20031;-77
2020/12/14 04:12:15;;;;;;;23.73;13.50;;;3.60;90.70;;;;;;4956439;29;19915;-76
2020/12/14 04:14:40;;;;;;;;;;;3.60;90.80;;;;;;4971394;28;20031;-76
2020/12/14 04:17:06;;;;;;;28.60;14.05;;;3.60;91.00;;;;;;4958657;29;19986;-77
2020/12/14 04:19:31;;;;;;;;;;;3.60;91.00;;;;;;4959069;29;20038;-78
2020/12/14 04:22:00;;;;;;;20.23;12.35;;;3.60;90.90;;;;;;4957752;29;19918;-76
2020/12/14 04:24:26;;;;;;;21.50;13.25;;;3.60;90.70;;;;;;4956077;29;20039;-78
2020/12/14 04:26:53;;;;;;;24.83;13.07;;;3.60;90.70;;;;;;4971338;28;20023;-76
2020/12/14 04:29:19;;;;;;;19.27;10.90;;;3.60;91.10;;;;;;4956222;28;20061;-76
2020/12/14 04:31:45;;;;;;;20.63;12.48;;;3.60;90.70;;;;;;4954784;29;20060;-75
2020/12/14 04:34:10;;;;;;;;;;;3.60;90.80;;;;;;4970812;28;20756;-76
2020/12/14 04:36:36;;;;;;;30.60;18.58;;;3.60;90.80;;;;;;4970081;28;19961;-76
2020/12/14 04:39:02;;;;;;;;;;;3.60;90.80;;;;;;4955640;28;20705;-77
2020/12/14 04:41:27;;;;;;;22.65;12.50;;;3.70;90.90;;;;;;4959920;29;20003;-78
2020/12/14 04:43:54;;;;;;;;;;;3.70;90.90;;;;;;4958413;29;20523;-77
2020/12/14 04:46:23;;;;;;;22.00;13.63;;;3.70;91.00;;;;;;4956623;28;19910;-77
2020/12/14 04:48:50;;;;;;;21.13;12.95;;;3.70;90.90;;;;;;4957448;28;20098;-78
2020/12/14 04:51:15;;;;;;;21.85;12.40;;;3.70;91.00;;;;;;4971530;28;20039;-78
2020/12/14 04:53:44;;;;;;;;;;;3.70;91.10;;;;;;4971551;28;20135;-77
2020/12/14 04:56:14;;;;;;;20.27;12.02;;;3.70;91.10;;;;;;4956288;28;20028;-78
2020/12/14 04:58:41;;;;;;;22.70;14.23;;;3.70;91.10;;;;;;4971252;28;20038;-77
2020/12/14 05:01:06;;;;;;;31.00;14.40;;;3.70;91.10;;;;;;4955074;29;20582;-77
2020/12/14 05:03:32;;;;;;;;;;;3.70;91.20;;;;;;4961258;29;20043;-77
2020/12/14 05:05:57;;;;;;;29.52;13.25;;;3.80;91.20;;;;;;4958832;29;19938;-76
2020/12/14 05:08:26;;;;;;;;;;;3.80;91.10;;;;;;4973233;28;20059;-77
2020/12/14 05:10:53;;;;;;;28.65;13.63;;;3.80;91.10;;;;;;4955779;28;19910;-76
2020/12/14 05:13:19;;;;;;;31.65;15.10;;;3.80;91.10;;;;;;4969119;28;20086;-75
2020/12/14 05:15:45;;;;;;;37.08;17.33;;;3.80;91.10;;;;;;4954280;28;20027;-77
2020/12/14 05:18:11;;;;;;;;;;;3.70;91.10;;;;;;4955539;29;20038;-76
2020/12/14 05:20:37;;;;;;;40.67;19.13;;;3.60;91.50;;;;;;4954879;29;19934;-77
2020/12/14 05:23:04;;;;;;;;;;;3.50;91.10;;;;;;4956235;28;20023;-77
2020/12/14 05:25:30;;;;;;;72.35;29.70;;;3.50;91.20;;;;;;4977952;28;19906;-78
2020/12/14 05:28:04;;;;;;;;;;;3.40;91.30;;;;;;4975938;28;20122;-78
2020/12/14 05:30:37;;;;;;;50.20;23.77;;;3.30;91.40;;;;;;4977099;28;19930;-77
2020/12/14 05:33:04;;;;;;;47.22;23.50;;;3.20;91.50;;;;;;4973921;28;20133;-78
2020/12/14 05:35:31;;;;;;;48.72;23.70;;;3.10;91.50;;;;;;4959637;28;20039;-76
2020/12/14 05:38:18;;;;;;;59.95;26.30;;;3.00;91.70;;;;;;4960277;28;20086;-77
2020/12/14 05:40:48;;;;;;;50.05;23.60;;;2.90;92.00;;;;;;4959046;29;20027;-77
2020/12/14 05:43:16;;;;;;;43.22;21.83;;;2.80;91.90;;;;;;4958874;28;20054;-79
2020/12/14 05:45:42;;;;;;;49.05;23.67;;;2.70;92.00;;;;;;4959064;28;20023;-79
2020/12/14 05:48:26;;;;;;;77.55;42.78;;;2.70;92.20;;;;;;4961646;28;20031;-77
2020/12/14 05:50:55;;;;;;;50.95;27.33;;;2.70;92.40;;;;;;4974654;28;20039;-76
2020/12/14 05:53:21;;;;;;;80.40;37.22;;;2.70;92.50;;;;;;4958991;28;20043;-79
2020/12/14 05:55:47;;;;;;;;;;;2.70;92.50;;;;;;4963309;28;20039;-80
2020/12/14 05:58:16;;;;;;;52.53;28.45;;;2.70;92.50;;;;;;4973557;28;20473;-79
2020/12/14 06:00:44;;;;;;;42.25;22.23;;;2.60;92.50;;;;;;4956831;29;20476;-79
2020/12/14 06:03:11;;;;;;;31.52;18.00;;;2.60;92.40;;;;;;4958723;28;20106;-79
2020/12/14 06:05:37;;;;;;;23.83;14.30;;;2.60;92.30;;;;;;4958604;28;20035;-80
2020/12/14 06:08:37;;;;;;;22.35;12.45;;;2.50;92.20;;;;;;4974882;28;20110;-79
2020/12/14 06:11:04;;;;;;;23.60;13.05;;;2.50;92.20;;;;;;4958804;28;20046;-78
2020/12/14 06:13:31;;;;;;;24.75;12.32;;;2.40;92.30;;;;;;4962133;29;20083;-79
2020/12/14 06:16:03;;;;;;;24.45;13.15;;;2.40;92.30;;;;;;4972687;28;20030;-79
2020/12/14 06:18:33;;;;;;;23.95;13.48;;;2.40;92.30;;;;;;4959242;28;20031;-79
2020/12/14 06:21:00;;;;;;;96.75;39.25;;;2.40;92.40;;;;;;4974569;28;20066;-78
2020/12/14 06:23:37;;;;;;;102.32;43.33;;;2.40;92.50;;;;;;4972044;28;20031;-78
2020/12/14 06:26:05;;;;;;;105.30;48.83;;;2.30;92.50;;;;;;4972181;28;20031;-78
2020/12/14 06:28:33;;;;;;;119.93;54.10;;;2.30;92.60;;;;;;4957505;28;20024;-78
2020/12/14 06:30:59;;;;;;;82.65;38.20;;;2.20;92.60;;;;;;4973328;28;20035;-78
2020/12/14 06:33:40;;;;;;;;;;;2.20;92.70;;;;;;4958567;29;20089;-78
2020/12/14 06:36:20;;;;;;;71.35;32.50;;;2.20;92.70;;;;;;4957852;28;19957;-79
2020/12/14 06:38:47;;;;;;;75.15;36.33;;;2.20;92.70;;;;;;4974661;28;20177;-78
2020/12/14 06:41:14;;;;;;;80.95;33.72;;;2.10;92.60;;;;;;4961970;28;20488;-79
2020/12/14 06:43:41;;;;;;;61.80;29.67;;;2.10;92.60;;;;;;4980148;28;20455;-79
2020/12/14 06:46:07;;;;;;;52.53;26.33;;;2.10;92.70;;;;;;4962584;28;20039;-79
2020/12/14 06:48:43;;;;;;;;;;;2.10;92.70;;;;;;4977893;28;20543;-78
2020/12/14 06:51:11;;;;;;;63.55;30.77;;;2.10;92.60;;;;;;4961159;28;20705;-79
2020/12/14 06:53:41;;;;;;;95.97;46.28;;;2.00;92.50;;;;;;4963963;28;20051;-79
2020/12/14 06:56:09;;;;;;;134.38;59.63;;;2.00;92.50;;;;;;4961766;29;20035;-79
2020/12/14 06:58:54;;;;;;;137.38;66.18;;;1.90;92.40;;;;;;4978893;28;20039;-80
2020/12/14 07:01:34;;;;;;;111.22;56.08;;;1.90;92.50;;;;;;4964227;28;20050;-77
2020/12/14 07:04:15;;;;;;;104.65;55.50;;;1.80;92.40;;;;;;4965713;29;20039;-80
2020/12/14 07:06:41;;;;;;;79.13;41.60;;;1.80;92.40;;;;;;4965210;28;20042;-80
2020/12/14 07:09:28;;;;;;;;;;;1.80;92.40;;;;;;4968062;28;20039;-78
2020/12/14 07:12:09;;;;;;;87.70;41.53;;;1.80;92.30;;;;;;4964410;29;19911;-78
2020/12/14 07:14:54;;;;;;;45.42;20.92;;;1.80;92.30;;;;;;4981658;28;20031;-77
2020/12/14 07:17:20;;;;;;;28.15;14.23;;;1.80;92.10;;;;;;4955364;29;20062;-78
2020/12/14 07:19:46;;;;;;;30.02;15.02;;;1.80;91.90;;;;;;4974725;28;20070;-80
2020/12/14 07:22:21;;;;;;;30.77;14.05;;;1.80;91.90;;;;;;4977169;28;20028;-78
2020/12/14 07:25:05;;;;;;;26.85;13.63;;;1.90;91.90;;;;;;4965598;28;20078;-80
2020/12/14 07:27:33;;;;;;;44.33;24.67;;;1.90;91.90;;;;;;4970549;28;20038;-80
2020/12/14 07:30:07;;;;;;;47.20;25.55;;;2.00;91.90;;;;;;4963865;29;20023;-80
2020/12/14 07:32:33;;;;;;;48.20;26.90;;;2.10;91.90;;;;;;4984022;28;20028;-80
2020/12/14 07:34:59;;;;;;;;;;;2.20;91.80;;;;;;4965867;28;20467;-80
2020/12/14 07:37:25;;;;;;;33.70;18.48;;;2.30;91.80;;;;;;4978976;28;19918;-80
2020/12/14 07:39:51;;;;;;;;;;;2.50;91.80;;;;;;4963518;28;20052;-76
2020/12/14 07:42:28;;;;;;;76.55;36.70;;;2.60;91.50;;;;;;4973259;28;19915;-76
2020/12/14 07:45:20;;;;;;;50.95;25.58;;;2.70;91.20;;;;;;4950638;28;20059;-77
2020/12/14 07:47:49;;;;;;;76.57;42.13;;;2.80;91.10;;;;;;4948667;29;20031;-76
2020/12/14 07:50:24;;;;;;;66.65;31.52;;;2.90;90.90;;;;;;4965711;28;20031;-76
2020/12/14 07:52:53;;;;;;;48.50;24.08;;;3.10;90.80;;;;;;4972966;28;20632;-77
2020/12/14 07:55:19;;;;;;;26.00;14.60;;;3.10;90.60;;;;;;4974759;28;20074;-77
2020/12/14 07:57:47;;;;;;;32.72;17.70;;;3.20;90.30;;;;;;4980694;28;20031;-77
2020/12/14 08:00:15;;;;;;;28.73;15.80;;;3.30;90.10;;;;;;4973761;28;20027;-77
2020/12/14 08:02:45;;;;;;;26.50;16.48;;;3.30;89.90;;;;;;4973092;28;20543;-77
2020/12/14 08:05:15;;;;;;;29.70;17.67;;;3.40;89.90;;;;;;4958768;29;20090;-77
2020/12/14 08:07:52;;;;;;;67.15;34.03;;;3.50;89.90;;;;;;4972283;28;20034;-76
2020/12/14 08:10:21;;;;;;;31.80;17.38;;;3.50;89.30;;;;;;4958336;29;20051;-77
2020/12/14 08:12:47;;;;;;;23.00;12.50;;;3.60;88.60;;;;;;4975094;28;20100;-77
2020/12/14 08:15:18;;;;;;;20.20;10.82;;;4.00;87.90;;;;;;4958105;29;20031;-80
2020/12/14 08:17:44;;;;;;;19.95;11.05;;;4.50;86.30;;;;;;4955788;29;20065;-83
2020/12/14 08:20:31;;;;;;;22.75;14.02;;;4.80;84.20;;;;;;4962249;28;20067;-84
2020/12/14 08:22:58;;;;;;;35.95;21.70;;;4.80;84.00;;;;;;4954441;29;20497;-80
2020/12/14 08:25:29;;;;;;;41.05;22.60;;;4.90;83.90;;;;;;4938032;29;20059;-80
2020/12/14 08:27:57;;;;;;;37.47;18.17;;;4.90;84.00;;;;;;4937794;29;20028;-82
2020/12/14 08:30:25;;;;;;;41.80;20.30;;;5.00;84.40;;;;;;4938720;29;20042;-81
2020/12/14 08:33:12;;;;;;;37.17;21.45;;;5.00;83.70;;;;;;4939249;29;20035;-83
2020/12/14 08:35:54;;;;;;;44.50;23.05;;;5.00;84.30;;;;;;4938511;29;20094;-81
2020/12/14 08:38:22;;;;;;;47.60;24.63;;;5.10;83.50;;;;;;4939171;29;20044;-81
2020/12/14 08:40:53;;;;;;;46.63;21.58;;;5.00;83.20;;;;;;4939335;29;20583;-81
2020/12/14 08:43:19;;;;;;;39.45;19.08;;;5.20;83.40;;;;;;4935745;29;20033;-82
2020/12/14 08:46:14;;;;;;;28.00;12.98;;;5.80;83.10;;;;;;4935452;29;20492;-82
2020/12/14 08:48:55;;;;;;;27.20;12.85;;;6.40;77.60;;;;;;4949139;29;20039;-83
2020/12/14 08:51:27;;;;;;;19.90;10.70;;;7.20;75.00;;;;;;4948714;28;20059;-83
2020/12/14 08:53:54;;;;;;;21.58;11.25;;;7.80;71.60;;;;;;4948824;29;20055;-80
2020/12/14 08:56:22;;;;;;;15.95;11.45;;;8.40;70.40;;;;;;4934055;29;20126;-79
2020/12/14 08:58:59;;;;;;;18.38;10.75;;;8.80;67.90;;;;;;4932782;29;20039;-81
2020/12/14 09:01:27;;;;;;;17.25;9.32;;;9.20;67.00;;;;;;4933318;29;20028;-78
2020/12/14 09:03:58;;;;;;;16.52;10.13;;;9.60;63.80;;;;;;4948705;29;20034;-79
2020/12/14 09:06:27;;;;;;;14.88;9.88;;;9.80;62.50;;;;;;4934043;29;20024;-80
2020/12/14 09:09:02;;;;;;;15.20;9.68;;;10.00;61.20;;;;;;4948442;29;20074;-82
2020/12/14 09:11:30;;;;;;;15.23;9.63;;;10.10;61.30;;;;;;4934002;29;20078;-78
2020/12/14 09:13:57;;;;;;;14.00;8.98;;;10.20;60.40;;;;;;4933862;29;20118;-81
2020/12/14 09:16:23;;;;;;;14.23;8.35;;;10.10;59.50;;;;;;4937136;29;20126;-79
2020/12/14 09:18:48;;;;;;;;;;;9.80;59.00;;;;;;4953122;29;20547;-79
2020/12/14 09:21:14;;;;;;;12.52;8.02;;;9.50;60.40;;;;;;4934548;29;19936;-77
2020/12/14 09:23:39;;;;;;;14.70;8.48;;;9.10;62.20;;;;;;4933716;29;20106;-78
2020/12/14 09:26:05;;;;;;;;;;;8.90;63.70;;;;;;4934142;29;20492;-80
2020/12/14 09:28:34;;;;;;;13.25;7.70;;;8.60;64.10;;;;;;4933532;29;19906;-78
2020/12/14 09:31:01;;;;;;;17.65;11.00;;;8.40;64.60;;;;;;4933841;29;20024;-84
2020/12/14 09:33:27;;;;;;;20.05;10.98;;;8.20;66.30;;;;;;4948948;29;20059;-85
2020/12/14 09:35:52;;;;;;;;;;;8.10;66.30;;;;;;4934290;29;20082;-86
2020/12/14 09:38:18;;;;;;;18.27;10.30;;;8.00;67.30;;;;;;4948184;29;19910;-80
2020/12/14 09:40:49;;;;;;;14.95;9.73;;;7.80;67.90;;;;;;4949384;28;20027;-80
2020/12/14 09:43:15;;;;;;;17.15;10.90;;;7.80;68.60;;;;;;4949973;28;20086;-81
2020/12/14 09:45:40;;;;;;;;;;;7.70;70.20;;;;;;4934131;29;20400;-82
2020/12/14 09:48:06;;;;;;;20.05;10.50;;;7.60;69.10;;;;;;4948477;29;20394;-81
2020/12/14 09:50:31;;;;;;;;;;;7.50;68.70;;;;;;4933989;29;20035;-80
2020/12/14 09:52:57;;;;;;;18.30;9.95;;;7.30;69.10;;;;;;4933848;29;20364;-80
2020/12/14 09:55:22;;;;;;;;;;;7.20;70.80;;;;;;4934095;29;20489;-79
2020/12/14 09:57:48;;;;;;;17.52;10.65;;;7.10;71.70;;;;;;4950131;29;19943;-84
2020/12/14 10:00:13;;;;;;;;;;;7.10;72.10;;;;;;4935327;29;20071;-78
2020/12/14 10:02:39;;;;;;;20.17;11.70;;;7.00;72.50;;;;;;4940182;29;20391;-77
2020/12/14 10:05:04;;;;;;;;;;;7.00;72.00;;;;;;4954272;29;20042;-81
2020/12/14 10:07:30;;;;;;;15.75;10.43;;;6.90;73.20;;;;;;4952597;29;19985;-80
2020/12/14 10:09:55;;;;;;;;;;;6.80;73.70;;;;;;4970199;28;20484;-77
2020/12/14 10:12:21;;;;;;;29.73;16.90;;;6.80;73.70;;;;;;4951802;28;19914;-80
2020/12/14 10:14:46;;;;;;;;;;;6.80;73.20;;;;;;4972998;28;20032;-78
2020/12/14 10:17:12;;;;;;;29.25;16.98;;;6.80;73.50;;;;;;4957981;28;19929;-80
2020/12/14 10:19:37;;;;;;;;;;;6.70;73.60;;;;;;4944078;29;20408;-83
2020/12/14 10:22:03;;;;;;;25.05;12.60;;;6.70;74.80;;;;;;4945243;29;19934;-84
2020/12/14 10:24:29;;;;;;;;;;;6.70;74.90;;;;;;4957266;29;20126;-79
2020/12/14 10:26:54;;;;;;;25.65;14.57;;;6.70;74.70;;;;;;4941563;29;19938;-81
2020/12/14 10:29:21;;;;;;;;;;;6.70;74.10;;;;;;4935426;29;20405;-81
2020/12/14 10:31:48;;;;;;;23.55;13.43;;;6.70;75.40;;;;;;4934906;29;20445;-80
2020/12/14 10:34:14;;;;;;;27.10;15.00;;;6.80;75.40;;;;;;4951017;29;20032;-79
2020/12/14 10:36:45;;;;;;;23.50;13.77;;;6.80;75.10;;;;;;4952547;28;20101;-79
2020/12/14 10:39:11;;;;;;;30.63;21.33;;;6.80;75.30;;;;;;4944519;28;20057;-79
2020/12/14 10:41:36;;;;;;;;;;;6.80;74.80;;;;;;4934700;29;20043;-78
2020/12/14 10:44:02;;;;;;;28.67;16.77;;;6.80;73.90;;;;;;4951965;28;19910;-78
2020/12/14 10:46:27;;;;;;;;;;;6.70;74.30;;;;;;4954706;29;20536;-84
2020/12/14 10:48:53;;;;;;;25.95;16.50;;;6.70;75.70;;;;;;4954616;28;20037;-79
2020/12/14 10:51:19;;;;;;;;;;;6.70;75.30;;;;;;4968282;28;20404;-78
2020/12/14 10:53:44;;;;;;;23.00;14.23;;;6.80;75.60;;;;;;4968056;28;19926;-80
2020/12/14 10:56:10;;;;;;;;;;;6.80;75.40;;;;;;4951618;29;20054;-80
2020/12/14 10:58:35;;;;;;;23.73;14.65;;;6.80;75.80;;;;;;4945973;28;19915;-80
2020/12/14 11:01:01;;;;;;;;;;;6.80;75.70;;;;;;4933519;29;20028;-81
2020/12/14 11:03:26;;;;;;;22.92;14.13;;;6.90;75.20;;;;;;4931609;29;20442;-78
2020/12/14 11:05:53;;;;;;;;;;;6.90;74.90;;;;;;4931963;29;20019;-79
2020/12/14 11:08:19;;;;;;;28.92;15.07;;;7.00;74.30;;;;;;4947906;29;19911;-80
2020/12/14 11:10:44;;;;;;;;;;;7.10;75.20;;;;;;4934157;29;20091;-79
2020/12/14 11:13:10;;;;;;;26.58;13.88;;;7.20;74.20;;;;;;4934257;29;20299;-78
2020/12/14 11:15:35;;;;;;;;;;;7.20;73.70;;;;;;4950183;28;20038;-83
2020/12/14 11:18:01;;;;;;;21.38;13.43;;;7.30;73.80;;;;;;4932398;29;20021;-80
2020/12/14 11:20:27;;;;;;;;;;;7.10;73.30;;;;;;4933544;29;20028;-79
2020/12/14 11:22:52;;;;;;;25.48;12.95;;;7.10;74.10;;;;;;4931996;29;19906;-76
2020/12/14 11:25:18;;;;;;;;;;;7.00;74.40;;;;;;4935964;29;20107;-78
2020/12/14 11:27:44;;;;;;;25.98;13.20;;;7.00;74.10;;;;;;4936682;29;19938;-81
2020/12/14 11:30:10;;;;;;;;;;;6.90;74.90;;;;;;4937330;29;20504;-82
2020/12/14 11:32:35;;;;;;;26.27;15.35;;;6.90;75.60;;;;;;4936675;29;19960;-81
2020/12/14 11:35:01;;;;;;;;;;;6.90;75.80;;;;;;4952358;29;20504;-84
2020/12/14 11:37:26;;;;;;;23.63;13.20;;;6.80;76.40;;;;;;4937206;29;19929;-79
2020/12/14 11:39:52;;;;;;;;;;;6.70;76.00;;;;;;4951909;29;20031;-83
2020/12/14 11:42:17;;;;;;;30.02;16.05;;;6.70;76.30;;;;;;4951391;29;19910;-79
2020/12/14 11:44:43;;;;;;;;;;;6.70;76.80;;;;;;4952232;29;20031;-81
2020/12/14 11:47:09;;;;;;;41.72;25.00;;;6.70;77.10;;;;;;4937058;29;19918;-78
2020/12/14 11:49:35;;;;;;;;;;;6.70;76.80;;;;;;4937614;29;20032;-79
2020/12/14 11:52:01;;;;;;;27.65;15.80;;;6.60;76.90;;;;;;4937023;29;19910;-80
2020/12/14 11:54:28;;;;;;;28.60;16.08;;;6.60;76.70;;;;;;4937252;29;20068;-80
2020/12/14 11:56:54;;;;;;;54.00;36.63;;;6.60;77.10;;;;;;4938702;29;20032;-77
2020/12/14 11:59:20;;;;;;;;;;;6.60;77.60;;;;;;4954956;29;20064;-80
2020/12/14 12:01:45;;;;;;;31.48;16.23;;;6.60;78.90;;;;;;4940952;29;19995;-80
2020/12/14 12:04:11;;;;;;;;;;;6.50;79.10;;;;;;4954133;29;20684;-80
2020/12/14 12:06:37;;;;;;;32.00;19.20;;;6.50;79.40;;;;;;4938245;29;19922;-81
2020/12/14 12:09:03;;;;;;;;;;;6.40;79.60;;;;;;4939438;29;20032;-80
2020/12/14 12:11:28;;;;;;;33.90;20.17;;;6.40;79.60;;;;;;4953216;29;19938;-78
2020/12/14 12:13:54;;;;;;;;;;;6.40;80.80;;;;;;4954297;29;20032;-78
2020/12/14 12:16:20;;;;;;;39.28;24.80;;;6.30;80.00;;;;;;4958486;28;19941;-80
2020/12/14 12:18:48;;;;;;;;;;;6.30;79.90;;;;;;4959541;28;20023;-78
2020/12/14 12:21:15;;;;;;;47.33;30.10;;;6.30;80.30;;;;;;4960017;28;19913;-79
2020/12/14 12:23:41;;;;;;;49.60;27.85;;;6.10;80.50;;;;;;4974161;28;20031;-80
2020/12/14 12:26:07;;;;;;;;;;;6.20;80.60;;;;;;4960949;29;20458;-80
2020/12/14 12:28:32;;;;;;;48.75;28.70;;;6.00;80.50;;;;;;4973586;28;19910;-80
2020/12/14 12:30:58;;;;;;;;;;;6.00;80.70;;;;;;4956142;29;20051;-80
2020/12/14 12:33:23;;;;;;;37.60;23.85;;;5.90;81.50;;;;;;4975775;28;20588;-79
2020/12/14 12:35:49;;;;;;;;;;;5.90;81.30;;;;;;4959454;28;20023;-80
2020/12/14 12:38:14;;;;;;;32.00;19.38;;;5.80;82.00;;;;;;4960077;29;19910;-80
2020/12/14 12:40:40;;;;;;;;;;;5.80;82.30;;;;;;4975854;28;20039;-79
2020/12/14 12:43:05;;;;;;;46.28;27.65;;;5.80;82.80;;;;;;4961246;29;19910;-80
2020/12/14 12:45:31;;;;;;;;;;;5.80;82.40;;;;;;4960277;29;20039;-81
2020/12/14 12:47:57;;;;;;;36.22;21.77;;;5.80;82.60;;;;;;4973969;28;19906;-78
2020/12/14 12:50:22;;;;;;;;;;;5.80;82.10;;;;;;4977558;28;20035;-79
2020/12/14 12:52:48;;;;;;;42.38;26.45;;;5.70;82.00;;;;;;4959345;29;19906;-78
2020/12/14 12:55:13;;;;;;;;;;;5.70;81.80;;;;;;4974739;28;20413;-79
2020/12/14 12:57:39;;;;;;;33.22;20.40;;;5.70;82.30;;;;;;4958085;29;20298;-80
2020/12/14 13:00:05;;;;;;;;;;;5.60;82.40;;;;;;4959533;29;20032;-81
2020/12/14 13:02:32;;;;;;;;;;;5.60;82.40;;;;;;4959698;29;19930;-80
2020/12/14 13:04:59;;;;;;;41.63;23.15;;;5.60;82.90;;;;;;4961066;29;19922;-79
2020/12/14 13:07:24;;;;;;;54.72;33.97;;;5.50;83.30;;;;;;4973602;28;20503;-79
2020/12/14 13:09:50;;;;;;;;;;;5.50;82.80;;;;;;4973742;28;20035;-79
2020/12/14 13:12:18;;;;;;;30.88;18.02;;;5.50;83.00;;;;;;4962922;28;19914;-78